KLM0952 EGNT-EHAM
Flight info
| Callsign | KLM0952 |
|---|---|
| Flight time | 0h 57m |
| Altitude | 25000 |
| Route | GIRLI P18 GASKO Y250 KEFTE/N0449F350 UY250 MAMUL L603 LAMSO |
| Aircraft | A21N/M-SDE2E3FGHIRWXY/LB1 |
Departure
| Time | 2026-04-28 10:49 |
|---|---|
| Airport | Newcastle International Airport (EGNT) |
Arrival
| Time | 2026-04-28 11:46 |
|---|---|
| Airport | Amsterdam Airport Schiphol (EHAM) |
| Time | Latitude | Longitude | Altitude | Speed | Heading |
|---|---|---|---|---|---|
| 2026-04-28 10:39 | 55.03669 | -1.70846 | 276 ft | 0 kts | 4° |
| 2026-04-28 10:42 | 55.03652 | -1.70848 | 277 ft | 4 kts | 4° |
| 2026-04-28 10:42 | 55.03625 | -1.70851 | 278 ft | 4 kts | 4° |
| 2026-04-28 10:42 | 55.03598 | -1.70854 | 278 ft | 4 kts | 4° |
| 2026-04-28 10:42 | 55.03579 | -1.70857 | 278 ft | 0 kts | 4° |
| 2026-04-28 10:46 | 55.03587 | -1.70849 | 278 ft | 3 kts | 38° |
| 2026-04-28 10:46 | 55.03598 | -1.70799 | 278 ft | 5 kts | 97° |
| 2026-04-28 10:46 | 55.03592 | -1.70703 | 278 ft | 9 kts | 110° |
| 2026-04-28 10:46 | 55.03525 | -1.70650 | 277 ft | 13 kts | 178° |
| 2026-04-28 10:47 | 55.03491 | -1.70650 | 277 ft | 0 kts | 180° |
| 2026-04-28 10:47 | 55.03474 | -1.70650 | 277 ft | 6 kts | 180° |
| 2026-04-28 10:47 | 55.03407 | -1.70652 | 277 ft | 13 kts | 179° |
| 2026-04-28 10:48 | 55.03372 | -1.70576 | 277 ft | 9 kts | 76° |
| 2026-04-28 10:48 | 55.03428 | -1.70353 | 276 ft | 51 kts | 65° |
| 2026-04-28 10:48 | 55.03702 | -1.69311 | 271 ft | 139 kts | 66° |
| 2026-04-28 10:48 | 55.04154 | -1.67505 | 670 ft | 176 kts | 67° |
| 2026-04-28 10:49 | 55.04668 | -1.65525 | 1675 ft | 182 kts | 64° |
| 2026-04-28 10:49 | 55.05229 | -1.63440 | 2540 ft | 198 kts | 63° |
| 2026-04-28 10:49 | 55.05830 | -1.61212 | 3381 ft | 206 kts | 64° |
| 2026-04-28 10:49 | 55.06401 | -1.58901 | 4347 ft | 208 kts | 73° |
| 2026-04-28 10:50 | 55.06495 | -1.56425 | 5298 ft | 211 kts | 102° |
| 2026-04-28 10:50 | 55.06093 | -1.54839 | 5907 ft | 217 kts | 124° |
| 2026-04-28 10:50 | 55.04258 | -1.52959 | 6605 ft | 259 kts | 169° |
| 2026-04-28 10:50 | 55.02389 | -1.52860 | 7358 ft | 275 kts | 178° |
| 2026-04-28 10:51 | 55.00448 | -1.52981 | 8055 ft | 282 kts | 178° |
| 2026-04-28 10:51 | 54.98476 | -1.53171 | 8430 ft | 287 kts | 184° |
| 2026-04-28 10:51 | 54.96551 | -1.54178 | 8510 ft | 293 kts | 203° |
| 2026-04-28 10:51 | 54.94760 | -1.55901 | 8524 ft | 296 kts | 208° |
| 2026-04-28 10:52 | 54.92986 | -1.57782 | 9037 ft | 301 kts | 209° |
| 2026-04-28 10:52 | 54.91188 | -1.59687 | 10076 ft | 304 kts | 208° |
| 2026-04-28 10:52 | 54.89364 | -1.61600 | 10980 ft | 312 kts | 208° |
| 2026-04-28 10:52 | 54.87419 | -1.63615 | 11385 ft | 338 kts | 209° |
| 2026-04-28 10:53 | 54.85325 | -1.65772 | 11742 ft | 363 kts | 209° |
| 2026-04-28 10:53 | 54.83101 | -1.68058 | 12292 ft | 378 kts | 209° |
| 2026-04-28 10:53 | 54.80808 | -1.70412 | 13062 ft | 387 kts | 209° |
| 2026-04-28 10:53 | 54.78470 | -1.72809 | 13912 ft | 394 kts | 209° |
| 2026-04-28 10:54 | 54.76086 | -1.75248 | 14688 ft | 401 kts | 209° |
| 2026-04-28 10:54 | 54.73657 | -1.77729 | 15463 ft | 407 kts | 209° |
| 2026-04-28 10:54 | 54.71158 | -1.80119 | 16183 ft | 413 kts | 201° |
| 2026-04-28 10:54 | 54.68434 | -1.81716 | 16926 ft | 415 kts | 192° |
| 2026-04-28 10:55 | 54.65595 | -1.82767 | 17692 ft | 418 kts | 187° |
| 2026-04-28 10:55 | 54.62714 | -1.83559 | 18422 ft | 422 kts | 185° |
| 2026-04-28 10:55 | 54.59788 | -1.84284 | 19096 ft | 427 kts | 185° |
| 2026-04-28 10:55 | 54.56869 | -1.85026 | 19700 ft | 432 kts | 185° |
| 2026-04-28 10:56 | 54.53882 | -1.85840 | 20310 ft | 437 kts | 186° |
| 2026-04-28 10:56 | 54.50867 | -1.86717 | 20915 ft | 442 kts | 186° |
| 2026-04-28 10:56 | 54.47819 | -1.87645 | 21546 ft | 446 kts | 186° |
| 2026-04-28 10:56 | 54.44752 | -1.88602 | 22172 ft | 450 kts | 186° |
| 2026-04-28 10:57 | 54.41656 | -1.89578 | 22758 ft | 454 kts | 186° |
| 2026-04-28 10:57 | 54.38526 | -1.90470 | 23331 ft | 456 kts | 181° |
| 2026-04-28 10:57 | 54.35367 | -1.90543 | 23885 ft | 453 kts | 169° |
| 2026-04-28 10:57 | 54.32322 | -1.89389 | 24355 ft | 445 kts | 153° |
| 2026-04-28 10:58 | 54.29630 | -1.86926 | 24798 ft | 435 kts | 136° |
| 2026-04-28 10:58 | 54.27506 | -1.83348 | 25278 ft | 423 kts | 120° |
| 2026-04-28 10:58 | 54.26466 | -1.80570 | 25588 ft | 418 kts | 112° |
| 2026-04-28 10:58 | 54.25138 | -1.76156 | 26082 ft | 417 kts | 110° |
| 2026-04-28 10:59 | 54.23869 | -1.71681 | 26558 ft | 419 kts | 109° |
| 2026-04-28 10:59 | 54.22594 | -1.67190 | 27126 ft | 419 kts | 109° |
| 2026-04-28 10:59 | 54.21310 | -1.62709 | 27689 ft | 419 kts | 109° |
| 2026-04-28 10:59 | 54.20018 | -1.58233 | 28132 ft | 421 kts | 109° |
| 2026-04-28 11:00 | 54.18292 | -1.52289 | 28704 ft | 423 kts | 109° |
| 2026-04-28 11:00 | 54.17406 | -1.49249 | 29028 ft | 423 kts | 109° |
| 2026-04-28 11:00 | 54.16100 | -1.44784 | 29619 ft | 420 kts | 108° |
| 2026-04-28 11:00 | 54.14794 | -1.40335 | 30238 ft | 417 kts | 108° |
| 2026-04-28 11:01 | 54.13502 | -1.35938 | 30762 ft | 414 kts | 108° |
| 2026-04-28 11:01 | 54.12212 | -1.31551 | 31181 ft | 413 kts | 108° |
| 2026-04-28 11:01 | 54.10924 | -1.27178 | 31579 ft | 412 kts | 108° |
| 2026-04-28 11:01 | 54.09638 | -1.22819 | 31973 ft | 411 kts | 108° |
| 2026-04-28 11:02 | 54.08354 | -1.18475 | 32360 ft | 410 kts | 108° |
| 2026-04-28 11:02 | 54.07071 | -1.14148 | 32752 ft | 409 kts | 108° |
| 2026-04-28 11:02 | 54.05808 | -1.09893 | 33121 ft | 408 kts | 108° |
| 2026-04-28 11:02 | 54.04531 | -1.05596 | 33497 ft | 406 kts | 108° |
| 2026-04-28 11:03 | 54.03257 | -1.01322 | 33956 ft | 403 kts | 108° |
| 2026-04-28 11:03 | 54.01990 | -0.97082 | 34355 ft | 401 kts | 108° |
| 2026-04-28 11:03 | 54.00727 | -0.92855 | 34644 ft | 401 kts | 108° |
| 2026-04-28 11:03 | 53.99463 | -0.88626 | 34830 ft | 403 kts | 108° |
| 2026-04-28 11:04 | 53.98188 | -0.84373 | 35048 ft | 404 kts | 108° |
| 2026-04-28 11:04 | 53.96911 | -0.80122 | 35260 ft | 404 kts | 108° |
| 2026-04-28 11:04 | 53.95631 | -0.75868 | 35410 ft | 407 kts | 108° |
| 2026-04-28 11:05 | 53.93044 | -0.67301 | 35441 ft | 408 kts | 108° |
| 2026-04-28 11:05 | 53.90449 | -0.58741 | 35441 ft | 407 kts | 109° |
| 2026-04-28 11:06 | 53.87852 | -0.50201 | 35443 ft | 407 kts | 109° |
| 2026-04-28 11:06 | 53.85248 | -0.41670 | 35448 ft | 408 kts | 109° |
| 2026-04-28 11:07 | 53.82639 | -0.33149 | 35444 ft | 408 kts | 109° |
| 2026-04-28 11:07 | 53.80023 | -0.24639 | 35446 ft | 408 kts | 109° |
| 2026-04-28 11:08 | 53.77416 | -0.16187 | 35447 ft | 408 kts | 109° |
| 2026-04-28 11:08 | 53.74773 | -0.07651 | 35447 ft | 408 kts | 109° |
| 2026-04-28 11:09 | 53.72139 | 0.00830 | 35438 ft | 408 kts | 109° |
| 2026-04-28 11:09 | 53.69510 | 0.09261 | 35434 ft | 409 kts | 109° |
| 2026-04-28 11:10 | 53.66853 | 0.17753 | 35433 ft | 409 kts | 110° |
| 2026-04-28 11:10 | 53.64192 | 0.26227 | 35438 ft | 409 kts | 110° |
| 2026-04-28 11:11 | 53.61523 | 0.34699 | 35436 ft | 409 kts | 110° |
| 2026-04-28 11:11 | 53.58850 | 0.43153 | 35430 ft | 409 kts | 110° |
| 2026-04-28 11:12 | 53.56171 | 0.51598 | 35434 ft | 409 kts | 110° |
| 2026-04-28 11:12 | 53.53483 | 0.60043 | 35425 ft | 410 kts | 110° |
| 2026-04-28 11:13 | 53.50798 | 0.68448 | 35428 ft | 410 kts | 110° |
| 2026-04-28 11:13 | 53.48095 | 0.76879 | 35427 ft | 410 kts | 110° |
| 2026-04-28 11:14 | 53.45383 | 0.85309 | 35419 ft | 410 kts | 110° |
| 2026-04-28 11:14 | 53.42665 | 0.93729 | 35418 ft | 410 kts | 110° |
| 2026-04-28 11:15 | 53.39937 | 1.02148 | 35419 ft | 410 kts | 110° |
| 2026-04-28 11:15 | 53.37205 | 1.10556 | 35417 ft | 411 kts | 111° |
| 2026-04-28 11:16 | 53.34461 | 1.18970 | 35413 ft | 412 kts | 111° |
| 2026-04-28 11:16 | 53.31709 | 1.27378 | 35409 ft | 412 kts | 111° |
| 2026-04-28 11:17 | 53.28954 | 1.35767 | 35408 ft | 412 kts | 111° |
| 2026-04-28 11:17 | 53.26187 | 1.44162 | 35406 ft | 412 kts | 111° |
| 2026-04-28 11:18 | 53.23417 | 1.52537 | 35415 ft | 412 kts | 112° |
| 2026-04-28 11:18 | 53.22025 | 1.56741 | 35241 ft | 415 kts | 112° |
| 2026-04-28 11:18 | 53.20623 | 1.60964 | 35007 ft | 417 kts | 112° |
| 2026-04-28 11:18 | 53.19217 | 1.65190 | 34753 ft | 416 kts | 112° |
| 2026-04-28 11:19 | 53.17812 | 1.69402 | 34519 ft | 415 kts | 112° |
| 2026-04-28 11:19 | 53.16411 | 1.73596 | 34268 ft | 413 kts | 112° |
| 2026-04-28 11:19 | 53.15032 | 1.77719 | 33992 ft | 412 kts | 112° |
| 2026-04-28 11:19 | 53.13636 | 1.81890 | 33701 ft | 412 kts | 112° |
| 2026-04-28 11:20 | 53.12236 | 1.86064 | 33434 ft | 412 kts | 112° |
| 2026-04-28 11:20 | 53.10839 | 1.90221 | 33157 ft | 411 kts | 112° |
| 2026-04-28 11:20 | 53.09442 | 1.94372 | 32898 ft | 411 kts | 112° |
| 2026-04-28 11:20 | 53.08044 | 1.98516 | 32635 ft | 411 kts | 112° |
| 2026-04-28 11:21 | 53.06646 | 2.02655 | 32374 ft | 410 kts | 112° |
| 2026-04-28 11:21 | 53.05248 | 2.06791 | 32109 ft | 411 kts | 112° |
| 2026-04-28 11:21 | 53.03845 | 2.10932 | 31855 ft | 412 kts | 112° |
| 2026-04-28 11:21 | 53.02438 | 2.15076 | 31597 ft | 412 kts | 112° |
| 2026-04-28 11:22 | 53.01031 | 2.19215 | 31345 ft | 411 kts | 112° |
| 2026-04-28 11:22 | 52.99622 | 2.23348 | 31091 ft | 411 kts | 112° |
| 2026-04-28 11:22 | 52.98214 | 2.27476 | 30877 ft | 411 kts | 113° |
| 2026-04-28 11:22 | 52.96807 | 2.31596 | 30533 ft | 408 kts | 113° |
| 2026-04-28 11:23 | 52.95409 | 2.35674 | 29805 ft | 405 kts | 113° |
| 2026-04-28 11:23 | 52.94021 | 2.39722 | 29104 ft | 402 kts | 113° |
| 2026-04-28 11:23 | 52.92644 | 2.43733 | 28401 ft | 399 kts | 113° |
| 2026-04-28 11:23 | 52.91276 | 2.47712 | 27695 ft | 396 kts | 114° |
| 2026-04-28 11:24 | 52.89916 | 2.51664 | 26975 ft | 396 kts | 114° |
| 2026-04-28 11:24 | 52.88551 | 2.55629 | 26233 ft | 397 kts | 115° |
| 2026-04-28 11:24 | 52.87179 | 2.59601 | 25734 ft | 396 kts | 116° |
| 2026-04-28 11:24 | 52.85810 | 2.63555 | 25190 ft | 394 kts | 116° |
| 2026-04-28 11:25 | 52.84468 | 2.67424 | 24669 ft | 391 kts | 116° |
| 2026-04-28 11:25 | 52.83117 | 2.71311 | 24133 ft | 388 kts | 116° |
| 2026-04-28 11:25 | 52.81773 | 2.75175 | 23528 ft | 385 kts | 116° |
| 2026-04-28 11:25 | 52.80440 | 2.78998 | 22995 ft | 382 kts | 116° |
| 2026-04-28 11:26 | 52.79120 | 2.82782 | 22444 ft | 379 kts | 117° |
| 2026-04-28 11:26 | 52.77805 | 2.86544 | 21894 ft | 377 kts | 117° |
| 2026-04-28 11:26 | 52.76500 | 2.90274 | 21347 ft | 374 kts | 117° |
| 2026-04-28 11:26 | 52.75203 | 2.93974 | 20814 ft | 371 kts | 117° |
| 2026-04-28 11:27 | 52.73912 | 2.97653 | 20284 ft | 368 kts | 117° |
| 2026-04-28 11:27 | 52.72636 | 3.01297 | 19844 ft | 365 kts | 117° |
| 2026-04-28 11:27 | 52.71367 | 3.04929 | 19410 ft | 364 kts | 117° |
| 2026-04-28 11:27 | 52.70106 | 3.08533 | 18899 ft | 363 kts | 117° |
| 2026-04-28 11:28 | 52.68844 | 3.12133 | 18350 ft | 361 kts | 117° |
| 2026-04-28 11:28 | 52.67596 | 3.15686 | 17807 ft | 357 kts | 118° |
| 2026-04-28 11:28 | 52.66352 | 3.19223 | 17289 ft | 354 kts | 118° |
| 2026-04-28 11:28 | 52.65120 | 3.22723 | 16774 ft | 352 kts | 118° |
| 2026-04-28 11:29 | 52.63897 | 3.26193 | 16261 ft | 349 kts | 118° |
| 2026-04-28 11:29 | 52.62681 | 3.29637 | 15771 ft | 347 kts | 118° |
| 2026-04-28 11:29 | 52.61473 | 3.33053 | 15260 ft | 344 kts | 118° |
| 2026-04-28 11:29 | 52.60273 | 3.36443 | 14772 ft | 342 kts | 118° |
| 2026-04-28 11:30 | 52.59120 | 3.39840 | 14283 ft | 339 kts | 114° |
| 2026-04-28 11:30 | 52.57874 | 3.47145 | 13294 ft | 332 kts | 99° |
| 2026-04-28 11:30 | 52.57482 | 3.50877 | 12831 ft | 331 kts | 99° |
| 2026-04-28 11:31 | 52.57098 | 3.54596 | 12352 ft | 329 kts | 99° |
| 2026-04-28 11:31 | 52.56712 | 3.58296 | 11868 ft | 328 kts | 99° |
| 2026-04-28 11:31 | 52.56322 | 3.61983 | 11403 ft | 327 kts | 99° |
| 2026-04-28 11:31 | 52.55936 | 3.65606 | 11166 ft | 313 kts | 99° |
| 2026-04-28 11:32 | 52.55569 | 3.69021 | 11107 ft | 294 kts | 99° |
| 2026-04-28 11:32 | 52.55222 | 3.72240 | 10994 ft | 278 kts | 99° |
| 2026-04-28 11:32 | 52.54891 | 3.75296 | 10872 ft | 265 kts | 99° |
| 2026-04-28 11:32 | 52.54575 | 3.78220 | 10748 ft | 255 kts | 99° |
| 2026-04-28 11:33 | 52.54269 | 3.81028 | 10635 ft | 245 kts | 99° |
| 2026-04-28 11:33 | 52.53970 | 3.83777 | 10504 ft | 246 kts | 99° |
| 2026-04-28 11:33 | 52.53668 | 3.86558 | 10184 ft | 248 kts | 99° |
| 2026-04-28 11:33 | 52.53363 | 3.89351 | 9862 ft | 247 kts | 99° |
| 2026-04-28 11:34 | 52.53060 | 3.92105 | 9593 ft | 243 kts | 98° |
| 2026-04-28 11:34 | 52.52735 | 3.94811 | 9312 ft | 242 kts | 103° |
| 2026-04-28 11:34 | 52.52069 | 3.97358 | 9055 ft | 246 kts | 121° |
| 2026-04-28 11:34 | 52.51007 | 3.99541 | 8792 ft | 250 kts | 129° |
| 2026-04-28 11:35 | 52.49812 | 4.01653 | 8276 ft | 254 kts | 130° |
| 2026-04-28 11:35 | 52.48593 | 4.03753 | 7898 ft | 253 kts | 130° |
| 2026-04-28 11:35 | 52.47388 | 4.05832 | 7622 ft | 249 kts | 130° |
| 2026-04-28 11:35 | 52.46210 | 4.07872 | 7356 ft | 244 kts | 130° |
| 2026-04-28 11:36 | 52.45054 | 4.09884 | 7114 ft | 242 kts | 130° |
| 2026-04-28 11:36 | 52.43903 | 4.11888 | 6832 ft | 241 kts | 130° |
| 2026-04-28 11:36 | 52.42757 | 4.13888 | 6539 ft | 240 kts | 129° |
| 2026-04-28 11:36 | 52.41617 | 4.15876 | 6260 ft | 239 kts | 129° |
| 2026-04-28 11:37 | 52.40479 | 4.17859 | 6003 ft | 238 kts | 129° |
| 2026-04-28 11:37 | 52.39345 | 4.19833 | 5722 ft | 237 kts | 129° |
| 2026-04-28 11:37 | 52.38231 | 4.21772 | 5454 ft | 237 kts | 129° |
| 2026-04-28 11:37 | 52.37104 | 4.23731 | 5181 ft | 236 kts | 129° |
| 2026-04-28 11:38 | 52.35981 | 4.25683 | 4927 ft | 235 kts | 129° |
| 2026-04-28 11:38 | 52.34862 | 4.27628 | 4671 ft | 234 kts | 129° |
| 2026-04-28 11:38 | 52.33749 | 4.29560 | 4404 ft | 233 kts | 129° |
| 2026-04-28 11:38 | 52.32642 | 4.31478 | 4143 ft | 231 kts | 129° |
| 2026-04-28 11:39 | 52.31540 | 4.33388 | 3887 ft | 230 kts | 129° |
| 2026-04-28 11:39 | 52.30447 | 4.35281 | 3630 ft | 228 kts | 129° |
| 2026-04-28 11:39 | 52.29357 | 4.37167 | 3361 ft | 228 kts | 129° |
| 2026-04-28 11:39 | 52.28271 | 4.39046 | 3135 ft | 223 kts | 129° |
| 2026-04-28 11:40 | 52.27229 | 4.40839 | 2919 ft | 215 kts | 129° |
| 2026-04-28 11:40 | 52.26181 | 4.42652 | 2805 ft | 220 kts | 129° |
| 2026-04-28 11:40 | 52.25156 | 4.44418 | 2725 ft | 209 kts | 129° |
| 2026-04-28 11:40 | 52.24172 | 4.46107 | 2574 ft | 199 kts | 129° |
| 2026-04-28 11:41 | 52.23247 | 4.47689 | 2375 ft | 190 kts | 128° |
| 2026-04-28 11:41 | 52.22339 | 4.49267 | 2102 ft | 191 kts | 126° |
| 2026-04-28 11:41 | 52.21626 | 4.51066 | 1973 ft | 188 kts | 107° |
| 2026-04-28 11:41 | 52.21533 | 4.53027 | 1988 ft | 168 kts | 79° |
| 2026-04-28 11:42 | 52.21813 | 4.54821 | 1983 ft | 160 kts | 71° |
| 2026-04-28 11:42 | 52.22285 | 4.56460 | 1977 ft | 160 kts | 61° |
| 2026-04-28 11:42 | 52.22850 | 4.57979 | 1959 ft | 149 kts | 59° |
| 2026-04-28 11:42 | 52.23379 | 4.59350 | 1978 ft | 138 kts | 59° |
| 2026-04-28 11:43 | 52.23878 | 4.60646 | 1910 ft | 131 kts | 60° |
| 2026-04-28 11:43 | 52.24343 | 4.61868 | 1731 ft | 125 kts | 60° |
| 2026-04-28 11:43 | 52.24800 | 4.63059 | 1553 ft | 124 kts | 58° |
| 2026-04-28 11:43 | 52.25259 | 4.64251 | 1367 ft | 123 kts | 58° |
| 2026-04-28 11:44 | 52.25716 | 4.65437 | 1205 ft | 124 kts | 57° |
| 2026-04-28 11:44 | 52.26174 | 4.66624 | 1031 ft | 124 kts | 58° |
| 2026-04-28 11:44 | 52.26637 | 4.67826 | 851 ft | 125 kts | 58° |
| 2026-04-28 11:44 | 52.27096 | 4.69017 | 686 ft | 124 kts | 57° |
| 2026-04-28 11:45 | 52.27559 | 4.70221 | 529 ft | 126 kts | 57° |
| 2026-04-28 11:45 | 52.28029 | 4.71441 | 365 ft | 127 kts | 56° |
| 2026-04-28 11:45 | 52.28499 | 4.72664 | 203 ft | 128 kts | 57° |
| 2026-04-28 11:45 | 52.28975 | 4.73899 | 25 ft | 128 kts | 57° |
| 2026-04-28 11:46 | 52.29388 | 4.74973 | 1 ft | 91 kts | 58° |
| 2026-04-28 11:46 | 52.29590 | 4.75493 | 1 ft | 64 kts | 59° |
| 2026-04-28 11:46 | 52.29878 | 4.75887 | 2 ft | 30 kts | 29° |
| 2026-04-28 11:46 | 52.29990 | 4.76002 | 2 ft | 16 kts | 46° |
| 2026-04-28 11:47 | 52.30057 | 4.76160 | 2 ft | 18 kts | 55° |
| 2026-04-28 11:47 | 52.30126 | 4.76341 | 2 ft | 20 kts | 58° |
| 2026-04-28 11:47 | 52.30230 | 4.76609 | 2 ft | 22 kts | 58° |
| 2026-04-28 11:47 | 52.30286 | 4.76755 | 2 ft | 23 kts | 57° |
| 2026-04-28 11:48 | 52.30373 | 4.76980 | 2 ft | 24 kts | 58° |
| 2026-04-28 11:48 | 52.30473 | 4.77146 | 2 ft | 18 kts | 348° |
| 2026-04-28 11:48 | 52.30591 | 4.77043 | 2 ft | 17 kts | 335° |
| 2026-04-28 11:48 | 52.30646 | 4.77097 | 2 ft | 10 kts | 78° |
| 2026-04-28 11:49 | 52.30650 | 4.77145 | 2 ft | 1 kts | 53° |
| 2026-04-28 11:49 | 52.30666 | 4.77150 | 3 ft | 5 kts | 7° |
| 2026-04-28 11:49 | 52.30701 | 4.77154 | 2 ft | 0 kts | 3° |
| 2026-04-28 11:49 | 52.30708 | 4.77155 | 2 ft | 0 kts | 3° |